NOAA/GLERL Met Station at Muskegon, MI

Previous 5 days (top of hour only)
See also Previous 3 Hours (2 minute increments)
Jump down to Data
Switch to [English][Metric]
Zoom: Click and drag, Pan: shift-click and drag, Unzoom: double-click, Unzoom All






Note: Speed = mean wind during 2-minute period at top of hour,
Gust = max wind during 2-minute period at top of hour,
Peak = max wind during entire hour.
• See also 5-day windrose plot


NOAA/GLERL Met Station at Muskegon, MI

Previous 5 days (top of hour only)
See also Previous 3 Hours (2 minute increments)
Jump up to Graphs
Switch to [English][Metric]
                  Wind  Wind  Wind   Air   Dew   Rel     Sta   PAR
                   Spd   Gst   Dir  Temp    Pt   Hum    Pres uE/m2/
YYYY-MM-DD   EST   kts   kts   deg     F     F     %   in Hg   sec
2017-02-25 22:00  17.1  18.7   327  26.4  17.0  67.3   29.34     2
2017-02-25 21:00  17.1  19.6   311  26.2  17.9  70.5   29.31     2
2017-02-25 20:00  19.2  22.4   317  25.9  18.0  71.7   29.30     2
2017-02-25 19:00  19.1  21.0   325  25.5  17.9  72.7   29.29     2
2017-02-25 18:00  19.8  25.9   304  25.2  20.0  80.7   29.26    29
2017-02-25 17:00  21.8  24.1   307  25.0  19.2  78.4   29.24   156
2017-02-25 16:00  20.2  24.5   302  25.0  17.3  72.3   29.21   295
2017-02-25 15:00  22.4  23.9   314  24.4  17.2  73.6   29.17   409
2017-02-25 14:00  24.5  26.2   300  24.8  19.1  78.7   29.15   584
2017-02-25 13:00  25.1  28.0   312  25.0  19.4  79.0   29.12   682
2017-02-25 12:00  25.5  29.4   328  25.7  20.1  79.0   29.09   427
2017-02-25 11:00  22.9  26.4   326  26.1  20.7  79.9   29.06   370
2017-02-25 10:00  24.5  26.4   327  26.2  22.6  86.0   29.04   343
2017-02-25 09:00  23.5  27.4   327  27.0  23.1  85.2   29.02   136
2017-02-25 08:00  21.8  24.9   315  27.1  23.6  86.3   28.99    29
2017-02-25 07:00  24.3  26.2   309  27.9  24.2  86.0   28.97     2
2017-02-25 06:00  20.0  21.8   307  28.8  25.8  88.4   28.93     2
2017-02-25 05:00  20.6  22.0   312  29.3  26.2  88.2   28.92     2
2017-02-25 04:00  21.4  23.3   315  29.8  28.1  93.2   28.90     2
2017-02-25 03:00  21.8  24.3   304  30.6  29.2  94.5   28.89     2
2017-02-25 02:00  23.7  26.4   320  32.0  31.3  97.1   28.88     2
2017-02-25 01:00  21.0  22.7   316  33.3  32.7  97.9   28.88     2
2017-02-25 00:00  13.8  15.0   302  35.4  35.0  98.4   28.87     2
2017-02-24 23:00   7.6   8.0   269  35.8  35.4  98.4   28.87     2
2017-02-24 22:00  10.9  12.8   270  35.4  35.0  98.3   28.85     2
2017-02-24 21:00   8.0   8.7   344  36.0  35.5  98.2   28.81     2
2017-02-24 20:00   8.6   9.1   345  36.0  35.5  98.0   28.83     2
2017-02-24 19:00   4.5   6.2    83  38.8  38.3  98.0   28.81     2
2017-02-24 18:00   3.3   3.9    25  37.6  37.0  97.8   28.82    33
2017-02-24 17:00   4.7   6.0   353  39.2  38.5  97.4   28.81    61
2017-02-24 16:00  13.6  15.9    97  38.7  37.9  97.1   28.80   124
2017-02-24 15:00  10.9  14.4   107  38.1  37.2  96.5   28.81    89
2017-02-24 14:00  15.9  18.9   100  37.4  36.5  96.5   28.82   247
2017-02-24 13:00  15.4  18.1    99  36.9  35.9  96.2   28.86   158
2017-02-24 07:00  21.8  27.0   102  35.4  33.1  91.3   28.94     2
2017-02-24 06:00  19.4  27.6   100  35.6  33.3  91.4   28.97     2
2017-02-24 05:00  22.4  29.4    99  36.3  33.8  90.5   28.97     2
2017-02-24 04:00  19.6  29.2   107  36.9  34.6  91.5   29.04     2
2017-02-24 03:00  16.9  24.3    82  36.7  34.4  91.4   29.07     2
2017-02-24 02:00  14.8  20.4    79  36.9  35.2  93.6   29.12     2
2017-02-24 01:00  15.7  21.6    84  37.6  34.8  89.7   29.11     2
2017-02-24 00:00  16.9  20.4    88  38.7  34.7  85.5   29.14     2
2017-02-23 23:00  12.8  18.1    78  39.9  34.3  80.0   29.16     2
2017-02-23 22:00  13.4  18.9    81  40.6  33.4  75.0   29.18     2
2017-02-23 21:00  11.7  15.0    75  41.2  33.6  74.2   29.19     2
2017-02-23 20:00   9.7  13.0    62  42.1  34.3  73.7   29.20     2
2017-02-23 19:00   5.8   8.0    66  43.2  35.1  72.8   29.21     2
2017-02-23 18:00   7.6   8.9    33  43.9  35.6  72.2   29.20    25
2017-02-23 17:00   6.2   8.9    55  44.4  35.6  70.9   29.19   155
2017-02-23 16:00  15.0  17.9    47  44.2  35.7  71.6   29.15   336
2017-02-23 15:00  18.5  21.2   350  37.6  34.2  87.6   29.21   625
2017-02-23 14:00  18.3  19.6   345  37.8  34.3  87.2   29.19   725
2017-02-23 13:00  14.8  15.9   347  39.0  35.4  86.7   29.16  2167
2017-02-23 12:00  12.4  13.0   334  37.8  35.9  92.8   29.18  2129
2017-02-23 11:00   7.2   8.0   321  38.8  37.1  93.2   29.17   678
2017-02-23 10:00   7.0   8.2    15  39.6  39.2  98.6   29.16   263
2017-02-23 09:00   7.4   8.7   359  37.4  37.1  98.8   29.12   278
2017-02-23 08:00   9.9  10.7   348  37.0  36.7  98.7   29.09    39
2017-02-23 07:00  10.9  11.7   335  36.1  35.8  98.6   29.08     2
2017-02-23 06:00   8.4   9.3   339  38.7  38.2  98.2   29.05     2
2017-02-23 05:00  12.6  14.0   295  39.2  38.9  98.7   29.01     2
2017-02-23 04:00  17.7  18.7   248  41.2  40.9  99.0   29.00     2
2017-02-23 03:00  16.9  18.7   241  41.0  40.8  99.1   28.98     2
2017-02-23 02:00  13.0  14.0   219  38.1  37.8  98.8   28.96     2
2017-02-23 01:00  16.7  17.1   193  38.3  38.0  98.8   28.95     2
2017-02-23 00:00  19.6  20.2   195  41.0  40.7  98.8   28.95     2
2017-02-22 23:00  20.2  20.8   194  41.2  40.9  98.9   28.95     2
2017-02-22 22:00  17.5  19.1   185  43.2  42.9  98.9   28.97     2
2017-02-22 21:00  20.8  21.6   188  41.7  41.4  98.8   28.95     2
2017-02-22 20:00  21.0  22.2   183  41.4  41.0  98.8   28.96     2
2017-02-22 19:00  24.1  25.5   182  42.1  41.8  98.8   28.98     2
2017-02-22 18:00  21.2  22.6   188  41.0  40.7  98.7   29.00    47
2017-02-22 17:00  17.9  19.1   187  39.2  38.8  98.6   29.02   180
2017-02-22 16:00  19.8  21.6   185  41.2  40.8  98.6   29.05   268
2017-02-22 15:00  18.3  19.1   188  41.5  41.2  98.6   29.05   734
2017-02-22 14:00  19.1  20.8   185  42.3  41.9  98.7   29.09   608
2017-02-22 13:00  18.1  19.2   187  42.1  41.7  98.7   29.11   642
2017-02-22 12:00  19.6  20.6   185  41.4  41.0  98.7   29.12   571
2017-02-22 11:00  19.4  21.4   186  41.4  41.0  98.7   29.13   486
2017-02-22 10:00  14.0  14.6   191  39.7  39.4  98.6   29.17   233
2017-02-22 09:00  13.4  14.4   193  39.7  39.4  98.6   29.16   228
2017-02-22 08:00  17.1  18.5   194  37.9  37.6  98.6   29.17    37
2017-02-22 07:00  15.2  16.3   193  39.0  38.7  98.7   29.18     2
2017-02-22 06:00  15.0  16.1   187  39.7  39.4  98.6   29.18     2
2017-02-22 05:00  15.4  15.7   194  41.2  40.8  98.6   29.19     2
2017-02-22 04:00  12.1  12.4   193  40.5  40.1  98.6   29.19     2
2017-02-22 03:00  14.2  15.2   196  43.9  43.5  98.6   29.19     2
2017-02-22 02:00  14.6  15.2   181  48.6  48.2  98.7   29.19     2
2017-02-22 01:00   4.5   5.6   132  44.4  44.0  98.5   29.22     2
2017-02-22 00:00   6.0   7.4   134  44.2  43.8  98.4   29.23     2
2017-02-21 23:00  10.5  10.7   186  43.0  42.6  98.4   29.26     2
2017-02-21 22:00  10.5  10.9   182  44.6  44.2  98.3   29.25     2
2017-02-21 21:00   7.2   8.0   174  41.5  41.0  98.1   29.26     2
2017-02-21 20:00   4.3   4.9   155  39.0  38.5  97.8   29.27     2
2017-02-21 19:00   3.5   4.1   155  36.0  35.3  97.5   29.29     2